High Prairie, Canada
Current Conditions -  °F | °C
As of 1:00 AM on Friday 24 Oct 2014 (Local Time) from CYPE Reporting Station
Broken Clouds Broken Clouds  
Wind Chill: 27°   Ceiling: 10000
Heat Index: 32°   Visibility: 15mi
Dew Point: 30°   Wind: 5mph
Humidity: 93%   Direction: 320°NW
Pressure: 29.65"   Gusts: NA
Location:  55.43°N, 116.48°W
Report Text: CYPE 240700Z 32004KT 15SM FEW040 BKN100 00/M01 A2965 RMK SC2AC5 SLP066
Loading
Personal Weather Stations






























Interactive Weather Map
Tropical Storm Tracking
New forecast layout! Learn more

10-Day Weather Forecast

Advertisements
Track Severe Weather on mobile